sensor_id;sensor_type;location;lat;lon;timestamp;P1;durP1;ratioP1;P2;durP2;ratioP2
23230;SDS011;11784;49.818;8.632;2022-10-28T00:00:21;2.38;;;0.90;;
23230;SDS011;11784;49.818;8.632;2022-10-28T00:02:47;2.53;;;1.50;;
23230;SDS011;11784;49.818;8.632;2022-10-28T00:05:12;3.03;;;1.05;;
23230;SDS011;11784;49.818;8.632;2022-10-28T00:07:39;3.78;;;1.52;;
23230;SDS011;11784;49.818;8.632;2022-10-28T00:10:05;2.92;;;1.45;;
23230;SDS011;11784;49.818;8.632;2022-10-28T00:12:33;2.67;;;1.30;;
23230;SDS011;11784;49.818;8.632;2022-10-28T00:15:00;1.77;;;1.10;;
23230;SDS011;11784;49.818;8.632;2022-10-28T00:17:26;3.08;;;1.38;;
23230;SDS011;11784;49.818;8.632;2022-10-28T00:19:51;3.10;;;1.75;;
23230;SDS011;11784;49.818;8.632;2022-10-28T00:22:17;4.80;;;1.63;;
23230;SDS011;11784;49.818;8.632;2022-10-28T00:24:43;3.03;;;1.85;;
23230;SDS011;11784;49.818;8.632;2022-10-28T00:27:08;4.63;;;1.60;;
23230;SDS011;11784;49.818;8.632;2022-10-28T00:29:34;4.32;;;1.60;;
23230;SDS011;11784;49.818;8.632;2022-10-28T00:31:59;4.05;;;1.42;;
23230;SDS011;11784;49.818;8.632;2022-10-28T00:34:25;1.70;;;0.93;;
23230;SDS011;11784;49.818;8.632;2022-10-28T00:36:50;5.55;;;1.67;;
23230;SDS011;11784;49.818;8.632;2022-10-28T00:39:17;6.32;;;2.28;;
23230;SDS011;11784;49.818;8.632;2022-10-28T00:41:48;4.10;;;2.05;;
23230;SDS011;11784;49.818;8.632;2022-10-28T00:50:11;5.65;;;1.83;;
23230;SDS011;11784;49.818;8.632;2022-10-28T00:52:38;3.60;;;1.30;;
23230;SDS011;11784;49.818;8.632;2022-10-28T00:55:04;5.68;;;1.83;;
23230;SDS011;11784;49.818;8.632;2022-10-28T00:57:33;3.90;;;1.70;;
23230;SDS011;11784;49.818;8.632;2022-10-28T01:00:01;5.50;;;1.58;;
23230;SDS011;11784;49.818;8.632;2022-10-28T01:02:28;1.38;;;0.93;;
23230;SDS011;11784;49.818;8.632;2022-10-28T01:04:54;2.13;;;1.33;;
23230;SDS011;11784;49.818;8.632;2022-10-28T01:07:20;2.17;;;1.83;;
23230;SDS011;11784;49.818;8.632;2022-10-28T01:09:47;2.10;;;1.10;;
23230;SDS011;11784;49.818;8.632;2022-10-28T01:12:31;2.10;;;1.13;;
23230;SDS011;11784;49.818;8.632;2022-10-28T01:15:19;2.95;;;1.33;;
23230;SDS011;11784;49.818;8.632;2022-10-28T01:29:11;2.85;;;1.52;;
23230;SDS011;11784;49.818;8.632;2022-10-28T01:35:18;2.83;;;1.20;;
23230;SDS011;11784;49.818;8.632;2022-10-28T01:38:00;2.63;;;1.50;;
23230;SDS011;11784;49.818;8.632;2022-10-28T01:48:35;2.35;;;1.10;;
23230;SDS011;11784;49.818;8.632;2022-10-28T01:53:53;4.60;;;1.75;;
23230;SDS011;11784;49.818;8.632;2022-10-28T01:56:22;3.60;;;1.50;;
23230;SDS011;11784;49.818;8.632;2022-10-28T01:58:51;2.20;;;1.23;;
23230;SDS011;11784;49.818;8.632;2022-10-28T02:01:19;4.85;;;1.52;;
23230;SDS011;11784;49.818;8.632;2022-10-28T02:03:47;6.75;;;1.65;;
23230;SDS011;11784;49.818;8.632;2022-10-28T02:06:14;4.97;;;1.55;;
23230;SDS011;11784;49.818;8.632;2022-10-28T02:14:28;3.00;;;1.17;;
23230;SDS011;11784;49.818;8.632;2022-10-28T02:17:34;2.65;;;1.60;;
23230;SDS011;11784;49.818;8.632;2022-10-28T02:22:45;6.43;;;2.70;;
23230;SDS011;11784;49.818;8.632;2022-10-28T02:25:18;4.53;;;2.70;;
23230;SDS011;11784;49.818;8.632;2022-10-28T02:30:43;3.15;;;1.65;;
23230;SDS011;11784;49.818;8.632;2022-10-28T02:33:17;4.60;;;2.15;;
23230;SDS011;11784;49.818;8.632;2022-10-28T02:35:47;4.90;;;2.13;;
23230;SDS011;11784;49.818;8.632;2022-10-28T02:38:22;3.97;;;2.13;;
23230;SDS011;11784;49.818;8.632;2022-10-28T02:40:58;4.13;;;1.90;;
23230;SDS011;11784;49.818;8.632;2022-10-28T02:43:26;4.50;;;1.83;;
23230;SDS011;11784;49.818;8.632;2022-10-28T02:45:58;2.65;;;1.63;;
23230;SDS011;11784;49.818;8.632;2022-10-28T02:48:27;3.00;;;1.67;;
23230;SDS011;11784;49.818;8.632;2022-10-28T02:51:04;2.50;;;1.42;;
23230;SDS011;11784;49.818;8.632;2022-10-28T02:53:36;4.55;;;1.33;;
23230;SDS011;11784;49.818;8.632;2022-10-28T02:56:11;2.83;;;1.52;;
23230;SDS011;11784;49.818;8.632;2022-10-28T02:58:39;2.70;;;1.33;;
23230;SDS011;11784;49.818;8.632;2022-10-28T03:01:05;1.60;;;1.00;;
23230;SDS011;11784;49.818;8.632;2022-10-28T03:03:31;6.88;;;2.40;;
23230;SDS011;11784;49.818;8.632;2022-10-28T03:05:56;2.50;;;1.50;;
23230;SDS011;11784;49.818;8.632;2022-10-28T03:08:22;8.77;;;3.88;;
23230;SDS011;11784;49.818;8.632;2022-10-28T03:10:49;8.95;;;5.43;;
23230;SDS011;11784;49.818;8.632;2022-10-28T03:13:15;11.55;;;5.43;;
23230;SDS011;11784;49.818;8.632;2022-10-28T03:15:40;6.15;;;3.80;;
23230;SDS011;11784;49.818;8.632;2022-10-28T03:18:06;6.30;;;2.45;;
23230;SDS011;11784;49.818;8.632;2022-10-28T03:20:31;4.53;;;1.88;;
23230;SDS011;11784;49.818;8.632;2022-10-28T03:22:57;2.13;;;1.30;;
23230;SDS011;11784;49.818;8.632;2022-10-28T03:25:22;3.35;;;1.75;;
23230;SDS011;11784;49.818;8.632;2022-10-28T03:27:48;3.78;;;1.65;;
23230;SDS011;11784;49.818;8.632;2022-10-28T03:30:13;7.00;;;2.63;;
23230;SDS011;11784;49.818;8.632;2022-10-28T03:32:42;5.95;;;1.75;;
23230;SDS011;11784;49.818;8.632;2022-10-28T03:35:07;4.10;;;1.50;;
23230;SDS011;11784;49.818;8.632;2022-10-28T03:37:33;3.25;;;1.85;;
23230;SDS011;11784;49.818;8.632;2022-10-28T03:39:59;5.30;;;2.47;;
23230;SDS011;11784;49.818;8.632;2022-10-28T03:42:26;5.97;;;2.20;;
23230;SDS011;11784;49.818;8.632;2022-10-28T03:44:52;5.15;;;2.22;;
23230;SDS011;11784;49.818;8.632;2022-10-28T03:47:17;3.28;;;1.48;;
23230;SDS011;11784;49.818;8.632;2022-10-28T03:49:43;3.75;;;2.00;;
23230;SDS011;11784;49.818;8.632;2022-10-28T03:52:08;8.23;;;2.92;;
23230;SDS011;11784;49.818;8.632;2022-10-28T03:54:34;5.85;;;2.53;;
23230;SDS011;11784;49.818;8.632;2022-10-28T03:56:59;5.75;;;2.60;;
23230;SDS011;11784;49.818;8.632;2022-10-28T03:59:25;5.78;;;2.13;;
23230;SDS011;11784;49.818;8.632;2022-10-28T04:01:50;4.43;;;2.28;;
23230;SDS011;11784;49.818;8.632;2022-10-28T04:04:17;7.40;;;1.75;;
23230;SDS011;11784;49.818;8.632;2022-10-28T04:06:43;5.25;;;2.58;;
23230;SDS011;11784;49.818;8.632;2022-10-28T04:09:08;4.38;;;2.72;;
23230;SDS011;11784;49.818;8.632;2022-10-28T04:11:33;2.58;;;1.48;;
23230;SDS011;11784;49.818;8.632;2022-10-28T04:13:59;4.38;;;1.75;;
23230;SDS011;11784;49.818;8.632;2022-10-28T04:16:25;2.88;;;1.90;;
23230;SDS011;11784;49.818;8.632;2022-10-28T04:18:50;3.97;;;1.40;;
23230;SDS011;11784;49.818;8.632;2022-10-28T04:21:16;2.58;;;2.22;;
23230;SDS011;11784;49.818;8.632;2022-10-28T04:23:41;7.20;;;2.22;;
23230;SDS011;11784;49.818;8.632;2022-10-28T04:26:07;4.18;;;1.80;;
23230;SDS011;11784;49.818;8.632;2022-10-28T04:28:32;3.95;;;1.70;;
23230;SDS011;11784;49.818;8.632;2022-10-28T04:30:58;4.30;;;1.90;;
23230;SDS011;11784;49.818;8.632;2022-10-28T04:33:23;4.68;;;1.75;;
23230;SDS011;11784;49.818;8.632;2022-10-28T04:35:49;6.18;;;2.35;;
23230;SDS011;11784;49.818;8.632;2022-10-28T04:38:14;3.47;;;1.67;;
23230;SDS011;11784;49.818;8.632;2022-10-28T04:40:40;8.48;;;2.55;;
23230;SDS011;11784;49.818;8.632;2022-10-28T04:43:05;4.38;;;1.58;;
23230;SDS011;11784;49.818;8.632;2022-10-28T04:45:32;4.13;;;1.83;;
23230;SDS011;11784;49.818;8.632;2022-10-28T04:47:58;5.00;;;1.80;;
23230;SDS011;11784;49.818;8.632;2022-10-28T04:50:24;5.72;;;2.35;;
23230;SDS011;11784;49.818;8.632;2022-10-28T04:52:50;4.05;;;2.20;;
23230;SDS011;11784;49.818;8.632;2022-10-28T04:55:16;4.45;;;1.70;;
23230;SDS011;11784;49.818;8.632;2022-10-28T04:57:42;4.47;;;1.80;;
23230;SDS011;11784;49.818;8.632;2022-10-28T05:00:08;3.80;;;1.85;;
23230;SDS011;11784;49.818;8.632;2022-10-28T05:02:34;4.22;;;2.55;;
23230;SDS011;11784;49.818;8.632;2022-10-28T05:04:59;3.63;;;2.08;;
23230;SDS011;11784;49.818;8.632;2022-10-28T05:07:27;3.03;;;1.67;;
23230;SDS011;11784;49.818;8.632;2022-10-28T05:09:53;3.30;;;1.88;;
23230;SDS011;11784;49.818;8.632;2022-10-28T05:12:19;3.33;;;1.50;;
23230;SDS011;11784;49.818;8.632;2022-10-28T05:14:44;3.42;;;1.67;;
23230;SDS011;11784;49.818;8.632;2022-10-28T05:17:10;5.72;;;1.60;;
23230;SDS011;11784;49.818;8.632;2022-10-28T05:19:36;3.13;;;2.05;;
23230;SDS011;11784;49.818;8.632;2022-10-28T05:22:01;3.25;;;1.95;;
23230;SDS011;11784;49.818;8.632;2022-10-28T05:24:27;3.55;;;1.92;;
23230;SDS011;11784;49.818;8.632;2022-10-28T05:26:52;5.90;;;2.00;;
23230;SDS011;11784;49.818;8.632;2022-10-28T05:29:18;2.33;;;1.48;;
23230;SDS011;11784;49.818;8.632;2022-10-28T05:31:44;5.63;;;1.70;;
23230;SDS011;11784;49.818;8.632;2022-10-28T05:34:10;2.85;;;1.65;;
23230;SDS011;11784;49.818;8.632;2022-10-28T05:36:36;3.45;;;1.55;;
23230;SDS011;11784;49.818;8.632;2022-10-28T05:39:02;2.33;;;1.55;;
23230;SDS011;11784;49.818;8.632;2022-10-28T05:41:28;7.22;;;1.73;;
23230;SDS011;11784;49.818;8.632;2022-10-28T05:43:54;3.72;;;1.90;;
23230;SDS011;11784;49.818;8.632;2022-10-28T05:46:19;4.40;;;2.25;;
23230;SDS011;11784;49.818;8.632;2022-10-28T05:48:46;6.03;;;2.00;;
23230;SDS011;11784;49.818;8.632;2022-10-28T05:51:11;5.85;;;2.30;;
23230;SDS011;11784;49.818;8.632;2022-10-28T05:53:37;5.35;;;2.17;;
23230;SDS011;11784;49.818;8.632;2022-10-28T05:56:05;3.42;;;1.60;;
23230;SDS011;11784;49.818;8.632;2022-10-28T05:58:31;7.18;;;1.98;;
23230;SDS011;11784;49.818;8.632;2022-10-28T06:00:56;5.65;;;1.73;;
23230;SDS011;11784;49.818;8.632;2022-10-28T06:03:22;3.97;;;1.77;;
23230;SDS011;11784;49.818;8.632;2022-10-28T06:05:47;5.68;;;1.88;;
23230;SDS011;11784;49.818;8.632;2022-10-28T06:08:13;3.85;;;1.88;;
23230;SDS011;11784;49.818;8.632;2022-10-28T06:10:39;3.88;;;1.40;;
23230;SDS011;11784;49.818;8.632;2022-10-28T06:13:05;6.47;;;2.58;;
23230;SDS011;11784;49.818;8.632;2022-10-28T06:15:31;4.43;;;2.60;;
23230;SDS011;11784;49.818;8.632;2022-10-28T06:17:56;5.10;;;2.30;;
23230;SDS011;11784;49.818;8.632;2022-10-28T06:20:22;4.43;;;2.83;;
23230;SDS011;11784;49.818;8.632;2022-10-28T06:25:15;5.85;;;1.98;;
23230;SDS011;11784;49.818;8.632;2022-10-28T06:27:41;4.57;;;2.33;;
23230;SDS011;11784;49.818;8.632;2022-10-28T06:30:07;6.78;;;2.33;;
23230;SDS011;11784;49.818;8.632;2022-10-28T06:32:33;5.22;;;2.42;;
23230;SDS011;11784;49.818;8.632;2022-10-28T06:34:58;7.60;;;1.98;;
23230;SDS011;11784;49.818;8.632;2022-10-28T06:37:24;2.95;;;1.88;;
23230;SDS011;11784;49.818;8.632;2022-10-28T06:39:49;3.53;;;2.38;;
23230;SDS011;11784;49.818;8.632;2022-10-28T06:42:16;8.02;;;2.03;;
23230;SDS011;11784;49.818;8.632;2022-10-28T06:44:42;4.78;;;2.05;;
23230;SDS011;11784;49.818;8.632;2022-10-28T06:47:08;3.83;;;2.00;;
23230;SDS011;11784;49.818;8.632;2022-10-28T06:49:33;6.00;;;2.50;;
23230;SDS011;11784;49.818;8.632;2022-10-28T06:51:59;3.92;;;1.75;;
23230;SDS011;11784;49.818;8.632;2022-10-28T06:54:24;3.38;;;2.10;;
23230;SDS011;11784;49.818;8.632;2022-10-28T06:56:50;2.58;;;1.70;;
23230;SDS011;11784;49.818;8.632;2022-10-28T06:59:16;3.33;;;2.00;;
23230;SDS011;11784;49.818;8.632;2022-10-28T07:01:41;3.20;;;1.85;;
23230;SDS011;11784;49.818;8.632;2022-10-28T07:04:10;8.02;;;3.92;;
23230;SDS011;11784;49.818;8.632;2022-10-28T07:06:36;6.63;;;4.30;;
23230;SDS011;11784;49.818;8.632;2022-10-28T07:09:02;8.60;;;3.75;;
23230;SDS011;11784;49.818;8.632;2022-10-28T07:11:28;8.70;;;3.97;;
23230;SDS011;11784;49.818;8.632;2022-10-28T07:13:53;6.60;;;3.20;;
23230;SDS011;11784;49.818;8.632;2022-10-28T07:16:19;8.00;;;4.15;;
23230;SDS011;11784;49.818;8.632;2022-10-28T07:18:44;6.97;;;2.80;;
23230;SDS011;11784;49.818;8.632;2022-10-28T07:21:10;4.53;;;2.60;;
23230;SDS011;11784;49.818;8.632;2022-10-28T07:23:36;4.72;;;2.67;;
23230;SDS011;11784;49.818;8.632;2022-10-28T07:26:01;4.82;;;2.45;;
23230;SDS011;11784;49.818;8.632;2022-10-28T07:28:27;3.72;;;2.30;;
23230;SDS011;11784;49.818;8.632;2022-10-28T07:30:53;6.10;;;1.70;;
23230;SDS011;11784;49.818;8.632;2022-10-28T07:33:18;8.18;;;1.88;;
23230;SDS011;11784;49.818;8.632;2022-10-28T07:35:44;3.22;;;1.42;;
23230;SDS011;11784;49.818;8.632;2022-10-28T07:38:10;6.28;;;2.05;;
23230;SDS011;11784;49.818;8.632;2022-10-28T07:40:36;3.75;;;2.30;;
23230;SDS011;11784;49.818;8.632;2022-10-28T07:43:02;6.50;;;1.92;;
23230;SDS011;11784;49.818;8.632;2022-10-28T07:45:27;3.47;;;1.70;;
23230;SDS011;11784;49.818;8.632;2022-10-28T07:47:53;7.90;;;1.90;;
23230;SDS011;11784;49.818;8.632;2022-10-28T07:50:19;5.07;;;2.10;;
23230;SDS011;11784;49.818;8.632;2022-10-28T07:52:44;5.03;;;1.70;;
23230;SDS011;11784;49.818;8.632;2022-10-28T07:55:10;3.65;;;1.70;;
23230;SDS011;11784;49.818;8.632;2022-10-28T07:57:36;3.20;;;1.45;;
23230;SDS011;11784;49.818;8.632;2022-10-28T08:00:03;2.85;;;1.65;;
23230;SDS011;11784;49.818;8.632;2022-10-28T08:02:30;2.85;;;1.65;;
23230;SDS011;11784;49.818;8.632;2022-10-28T08:04:55;3.75;;;1.65;;
23230;SDS011;11784;49.818;8.632;2022-10-28T08:07:21;6.15;;;2.05;;
23230;SDS011;11784;49.818;8.632;2022-10-28T08:09:46;2.45;;;1.73;;
23230;SDS011;11784;49.818;8.632;2022-10-28T08:12:13;4.25;;;2.00;;
23230;SDS011;11784;49.818;8.632;2022-10-28T08:14:39;6.13;;;2.22;;
23230;SDS011;11784;49.818;8.632;2022-10-28T08:17:04;6.30;;;2.00;;
23230;SDS011;11784;49.818;8.632;2022-10-28T08:19:30;3.35;;;1.75;;
23230;SDS011;11784;49.818;8.632;2022-10-28T08:21:56;4.20;;;2.00;;
23230;SDS011;11784;49.818;8.632;2022-10-28T08:24:22;2.65;;;1.40;;
23230;SDS011;11784;49.818;8.632;2022-10-28T08:26:47;2.58;;;1.60;;
23230;SDS011;11784;49.818;8.632;2022-10-28T08:29:13;2.78;;;1.48;;
23230;SDS011;11784;49.818;8.632;2022-10-28T08:31:39;3.03;;;1.70;;
23230;SDS011;11784;49.818;8.632;2022-10-28T08:34:05;5.25;;;2.13;;
23230;SDS011;11784;49.818;8.632;2022-10-28T08:36:31;4.15;;;1.75;;
23230;SDS011;11784;49.818;8.632;2022-10-28T08:38:56;2.33;;;1.35;;
23230;SDS011;11784;49.818;8.632;2022-10-28T08:44:16;3.05;;;1.60;;
23230;SDS011;11784;49.818;8.632;2022-10-28T08:47:08;3.83;;;1.60;;
23230;SDS011;11784;49.818;8.632;2022-10-28T08:49:42;3.58;;;1.85;;
23230;SDS011;11784;49.818;8.632;2022-10-28T08:55:20;4.57;;;1.80;;
23230;SDS011;11784;49.818;8.632;2022-10-28T08:57:56;4.05;;;2.33;;
23230;SDS011;11784;49.818;8.632;2022-10-28T09:00:45;3.28;;;1.42;;
23230;SDS011;11784;49.818;8.632;2022-10-28T09:03:15;3.20;;;1.80;;
23230;SDS011;11784;49.818;8.632;2022-10-28T09:05:46;5.45;;;2.00;;
23230;SDS011;11784;49.818;8.632;2022-10-28T09:08:24;2.65;;;1.98;;
23230;SDS011;11784;49.818;8.632;2022-10-28T09:18:57;6.60;;;1.40;;
23230;SDS011;11784;49.818;8.632;2022-10-28T09:21:32;3.30;;;2.22;;
23230;SDS011;11784;49.818;8.632;2022-10-28T09:24:13;7.63;;;2.00;;
23230;SDS011;11784;49.818;8.632;2022-10-28T09:34:53;4.32;;;1.67;;
23230;SDS011;11784;49.818;8.632;2022-10-28T09:37:28;4.57;;;1.38;;
23230;SDS011;11784;49.818;8.632;2022-10-28T09:40:18;8.55;;;2.03;;
23230;SDS011;11784;49.818;8.632;2022-10-28T09:42:57;3.53;;;1.60;;
23230;SDS011;11784;49.818;8.632;2022-10-28T09:45:25;4.45;;;1.90;;
23230;SDS011;11784;49.818;8.632;2022-10-28T09:47:56;8.73;;;1.85;;
23230;SDS011;11784;49.818;8.632;2022-10-28T09:50:27;5.47;;;2.00;;
23230;SDS011;11784;49.818;8.632;2022-10-28T09:52:58;2.80;;;1.58;;
23230;SDS011;11784;49.818;8.632;2022-10-28T09:55:36;5.53;;;2.00;;
23230;SDS011;11784;49.818;8.632;2022-10-28T09:58:02;2.13;;;1.40;;
23230;SDS011;11784;49.818;8.632;2022-10-28T10:00:28;4.13;;;1.50;;
23230;SDS011;11784;49.818;8.632;2022-10-28T10:02:55;3.40;;;1.40;;
23230;SDS011;11784;49.818;8.632;2022-10-28T10:05:22;2.53;;;1.15;;
23230;SDS011;11784;49.818;8.632;2022-10-28T10:07:53;2.53;;;1.67;;
23230;SDS011;11784;49.818;8.632;2022-10-28T10:13:27;4.80;;;1.10;;
23230;SDS011;11784;49.818;8.632;2022-10-28T10:18:50;6.70;;;1.92;;
23230;SDS011;11784;49.818;8.632;2022-10-28T10:21:38;4.65;;;1.33;;
23230;SDS011;11784;49.818;8.632;2022-10-28T10:24:22;2.87;;;0.90;;
23230;SDS011;11784;49.818;8.632;2022-10-28T10:27:02;8.65;;;2.58;;
23230;SDS011;11784;49.818;8.632;2022-10-28T10:29:42;2.28;;;1.25;;
23230;SDS011;11784;49.818;8.632;2022-10-28T10:34:51;2.90;;;1.33;;
23230;SDS011;11784;49.818;8.632;2022-10-28T10:37:19;2.88;;;1.63;;
23230;SDS011;11784;49.818;8.632;2022-10-28T10:39:56;6.10;;;1.42;;
23230;SDS011;11784;49.818;8.632;2022-10-28T10:42:31;2.70;;;1.15;;
23230;SDS011;11784;49.818;8.632;2022-10-28T10:44:58;3.42;;;1.70;;
23230;SDS011;11784;49.818;8.632;2022-10-28T10:47:26;2.95;;;1.23;;
23230;SDS011;11784;49.818;8.632;2022-10-28T10:49:53;1.55;;;0.90;;
23230;SDS011;11784;49.818;8.632;2022-10-28T10:52:48;2.78;;;1.45;;
23230;SDS011;11784;49.818;8.632;2022-10-28T10:55:35;3.97;;;1.08;;
23230;SDS011;11784;49.818;8.632;2022-10-28T10:58:04;3.10;;;0.98;;
23230;SDS011;11784;49.818;8.632;2022-10-28T11:00:42;2.42;;;1.27;;
23230;SDS011;11784;49.818;8.632;2022-10-28T11:03:27;4.43;;;0.98;;
23230;SDS011;11784;49.818;8.632;2022-10-28T11:05:57;3.55;;;1.23;;
23230;SDS011;11784;49.818;8.632;2022-10-28T11:08:32;8.18;;;1.20;;
23230;SDS011;11784;49.818;8.632;2022-10-28T11:13:34;4.57;;;0.82;;
23230;SDS011;11784;49.818;8.632;2022-10-28T11:16:04;7.35;;;1.10;;
23230;SDS011;11784;49.818;8.632;2022-10-28T11:18:41;3.53;;;1.02;;
23230;SDS011;11784;49.818;8.632;2022-10-28T11:26:33;2.28;;;0.60;;
23230;SDS011;11784;49.818;8.632;2022-10-28T11:32:01;9.45;;;1.52;;
23230;SDS011;11784;49.818;8.632;2022-10-28T11:34:48;3.17;;;1.08;;
23230;SDS011;11784;49.818;8.632;2022-10-28T11:40:07;1.20;;;0.68;;
23230;SDS011;11784;49.818;8.632;2022-10-28T11:51:22;1.65;;;0.80;;
23230;SDS011;11784;49.818;8.632;2022-10-28T12:05:02;5.70;;;1.20;;
23230;SDS011;11784;49.818;8.632;2022-10-28T12:10:11;9.05;;;1.13;;
23230;SDS011;11784;49.818;8.632;2022-10-28T12:13:04;3.40;;;1.10;;
23230;SDS011;11784;49.818;8.632;2022-10-28T12:21:38;3.05;;;0.50;;
23230;SDS011;11784;49.818;8.632;2022-10-28T12:24:14;3.67;;;1.63;;
23230;SDS011;11784;49.818;8.632;2022-10-28T12:26:44;2.70;;;0.93;;
23230;SDS011;11784;49.818;8.632;2022-10-28T12:29:22;3.67;;;1.05;;
23230;SDS011;11784;49.818;8.632;2022-10-28T12:31:53;5.22;;;1.13;;
23230;SDS011;11784;49.818;8.632;2022-10-28T12:34:52;4.70;;;0.95;;
23230;SDS011;11784;49.818;8.632;2022-10-28T12:37:26;1.65;;;0.63;;
23230;SDS011;11784;49.818;8.632;2022-10-28T12:40:16;4.97;;;1.27;;
23230;SDS011;11784;49.818;8.632;2022-10-28T12:42:47;5.35;;;1.02;;
23230;SDS011;11784;49.818;8.632;2022-10-28T12:45:19;3.55;;;0.95;;
23230;SDS011;11784;49.818;8.632;2022-10-28T12:55:42;2.67;;;0.85;;
23230;SDS011;11784;49.818;8.632;2022-10-28T13:03:51;1.38;;;0.50;;
23230;SDS011;11784;49.818;8.632;2022-10-28T13:09:34;1.35;;;0.60;;
23230;SDS011;11784;49.818;8.632;2022-10-28T13:20:28;4.47;;;0.90;;
23230;SDS011;11784;49.818;8.632;2022-10-28T13:26:02;1.92;;;0.80;;
23230;SDS011;11784;49.818;8.632;2022-10-28T13:28:53;1.92;;;1.42;;
23230;SDS011;11784;49.818;8.632;2022-10-28T13:31:20;3.38;;;1.00;;
23230;SDS011;11784;49.818;8.632;2022-10-28T13:33:57;3.70;;;0.95;;
23230;SDS011;11784;49.818;8.632;2022-10-28T13:38:51;4.43;;;1.15;;
23230;SDS011;11784;49.818;8.632;2022-10-28T13:41:27;2.42;;;1.05;;
23230;SDS011;11784;49.818;8.632;2022-10-28T13:49:26;2.60;;;0.98;;
23230;SDS011;11784;49.818;8.632;2022-10-28T13:51:58;4.88;;;0.95;;
23230;SDS011;11784;49.818;8.632;2022-10-28T14:02:45;6.22;;;1.17;;
23230;SDS011;11784;49.818;8.632;2022-10-28T14:05:13;3.17;;;1.20;;
23230;SDS011;11784;49.818;8.632;2022-10-28T14:12:52;4.47;;;1.00;;
23230;SDS011;11784;49.818;8.632;2022-10-28T14:15:24;4.57;;;0.80;;
23230;SDS011;11784;49.818;8.632;2022-10-28T14:17:59;3.38;;;1.13;;
23230;SDS011;11784;49.818;8.632;2022-10-28T14:20:29;4.20;;;1.15;;
23230;SDS011;11784;49.818;8.632;2022-10-28T14:22:58;1.55;;;0.57;;
23230;SDS011;11784;49.818;8.632;2022-10-28T14:28:50;5.22;;;1.00;;
23230;SDS011;11784;49.818;8.632;2022-10-28T14:33:43;1.57;;;0.80;;
23230;SDS011;11784;49.818;8.632;2022-10-28T14:39:37;3.35;;;1.17;;
23230;SDS011;11784;49.818;8.632;2022-10-28T14:42:19;5.78;;;0.80;;
23230;SDS011;11784;49.818;8.632;2022-10-28T14:50:29;1.80;;;0.73;;
23230;SDS011;11784;49.818;8.632;2022-10-28T14:55:57;4.72;;;0.98;;
23230;SDS011;11784;49.818;8.632;2022-10-28T14:58:50;6.38;;;0.90;;
23230;SDS011;11784;49.818;8.632;2022-10-28T15:03:49;1.80;;;0.77;;
23230;SDS011;11784;49.818;8.632;2022-10-28T15:08:52;1.83;;;1.07;;
23230;SDS011;11784;49.818;8.632;2022-10-28T15:11:18;2.55;;;1.00;;
23230;SDS011;11784;49.818;8.632;2022-10-28T15:13:46;4.65;;;0.90;;
23230;SDS011;11784;49.818;8.632;2022-10-28T15:16:19;2.70;;;1.23;;
23230;SDS011;11784;49.818;8.632;2022-10-28T15:18:46;2.75;;;0.88;;
23230;SDS011;11784;49.818;8.632;2022-10-28T15:21:15;5.85;;;0.57;;
23230;SDS011;11784;49.818;8.632;2022-10-28T15:23:42;3.17;;;0.93;;
23230;SDS011;11784;49.818;8.632;2022-10-28T15:26:09;4.65;;;0.73;;
23230;SDS011;11784;49.818;8.632;2022-10-28T15:28:36;3.50;;;0.70;;
23230;SDS011;11784;49.818;8.632;2022-10-28T15:31:02;2.65;;;0.80;;
23230;SDS011;11784;49.818;8.632;2022-10-28T15:33:31;6.47;;;1.33;;
23230;SDS011;11784;49.818;8.632;2022-10-28T15:38:37;2.30;;;0.90;;
23230;SDS011;11784;49.818;8.632;2022-10-28T15:46:21;2.78;;;1.08;;
23230;SDS011;11784;49.818;8.632;2022-10-28T15:48:51;5.20;;;1.20;;
23230;SDS011;11784;49.818;8.632;2022-10-28T15:51:25;9.02;;;1.00;;
23230;SDS011;11784;49.818;8.632;2022-10-28T15:53:52;4.05;;;1.27;;
23230;SDS011;11784;49.818;8.632;2022-10-28T15:56:20;6.57;;;1.20;;
23230;SDS011;11784;49.818;8.632;2022-10-28T15:59:00;2.70;;;1.40;;
23230;SDS011;11784;49.818;8.632;2022-10-28T16:01:38;7.43;;;0.88;;
23230;SDS011;11784;49.818;8.632;2022-10-28T16:04:49;2.92;;;0.98;;
23230;SDS011;11784;49.818;8.632;2022-10-28T16:06:50;2.35;;;1.20;;
23230;SDS011;11784;49.818;8.632;2022-10-28T16:09:30;2.20;;;0.97;;
23230;SDS011;11784;49.818;8.632;2022-10-28T16:12:02;6.35;;;1.27;;
23230;SDS011;11784;49.818;8.632;2022-10-28T16:14:39;2.97;;;0.90;;
23230;SDS011;11784;49.818;8.632;2022-10-28T16:17:11;4.80;;;1.17;;
23230;SDS011;11784;49.818;8.632;2022-10-28T16:19:48;2.17;;;0.88;;
23230;SDS011;11784;49.818;8.632;2022-10-28T16:22:40;3.00;;;1.00;;
23230;SDS011;11784;49.818;8.632;2022-10-28T16:25:13;2.88;;;1.02;;
23230;SDS011;11784;49.818;8.632;2022-10-28T16:27:41;1.25;;;0.95;;
23230;SDS011;11784;49.818;8.632;2022-10-28T16:30:06;4.38;;;0.93;;
23230;SDS011;11784;49.818;8.632;2022-10-28T16:32:33;4.80;;;0.93;;
23230;SDS011;11784;49.818;8.632;2022-10-28T16:35:02;2.38;;;0.95;;
23230;SDS011;11784;49.818;8.632;2022-10-28T16:37:36;3.47;;;1.52;;
23230;SDS011;11784;49.818;8.632;2022-10-28T16:40:02;2.17;;;0.88;;
23230;SDS011;11784;49.818;8.632;2022-10-28T16:42:30;5.85;;;0.73;;
23230;SDS011;11784;49.818;8.632;2022-10-28T16:44:56;4.20;;;1.33;;
23230;SDS011;11784;49.818;8.632;2022-10-28T16:47:22;3.80;;;1.30;;
23230;SDS011;11784;49.818;8.632;2022-10-28T16:49:52;5.57;;;1.58;;
23230;SDS011;11784;49.818;8.632;2022-10-28T16:52:19;4.22;;;1.33;;
23230;SDS011;11784;49.818;8.632;2022-10-28T16:54:50;2.25;;;1.00;;
23230;SDS011;11784;49.818;8.632;2022-10-28T16:57:16;3.10;;;0.98;;
23230;SDS011;11784;49.818;8.632;2022-10-28T16:59:43;3.65;;;1.70;;
23230;SDS011;11784;49.818;8.632;2022-10-28T17:02:13;3.03;;;1.02;;
23230;SDS011;11784;49.818;8.632;2022-10-28T17:04:43;5.85;;;1.63;;
23230;SDS011;11784;49.818;8.632;2022-10-28T17:07:09;2.05;;;0.88;;
23230;SDS011;11784;49.818;8.632;2022-10-28T17:09:39;3.78;;;1.15;;
23230;SDS011;11784;49.818;8.632;2022-10-28T17:12:05;4.43;;;0.90;;
23230;SDS011;11784;49.818;8.632;2022-10-28T17:14:30;3.50;;;0.63;;
23230;SDS011;11784;49.818;8.632;2022-10-28T17:16:56;5.65;;;1.25;;
23230;SDS011;11784;49.818;8.632;2022-10-28T17:19:22;3.75;;;1.50;;
23230;SDS011;11784;49.818;8.632;2022-10-28T17:21:48;3.85;;;1.13;;
23230;SDS011;11784;49.818;8.632;2022-10-28T17:24:14;4.72;;;1.38;;
23230;SDS011;11784;49.818;8.632;2022-10-28T17:26:39;1.50;;;0.77;;
23230;SDS011;11784;49.818;8.632;2022-10-28T17:29:05;3.40;;;0.73;;
23230;SDS011;11784;49.818;8.632;2022-10-28T17:31:31;3.15;;;0.82;;
23230;SDS011;11784;49.818;8.632;2022-10-28T17:33:57;5.82;;;1.75;;
23230;SDS011;11784;49.818;8.632;2022-10-28T17:36:22;2.35;;;0.73;;
23230;SDS011;11784;49.818;8.632;2022-10-28T17:38:48;2.25;;;0.70;;
23230;SDS011;11784;49.818;8.632;2022-10-28T17:41:14;1.67;;;0.80;;
23230;SDS011;11784;49.818;8.632;2022-10-28T17:43:39;4.22;;;0.95;;
23230;SDS011;11784;49.818;8.632;2022-10-28T17:46:05;5.25;;;1.05;;
23230;SDS011;11784;49.818;8.632;2022-10-28T17:48:31;3.97;;;1.27;;
23230;SDS011;11784;49.818;8.632;2022-10-28T17:50:57;6.47;;;1.73;;
23230;SDS011;11784;49.818;8.632;2022-10-28T17:53:23;2.72;;;1.40;;
23230;SDS011;11784;49.818;8.632;2022-10-28T17:55:56;14.38;;;3.22;;
23230;SDS011;11784;49.818;8.632;2022-10-28T17:58:22;11.45;;;1.95;;
23230;SDS011;11784;49.818;8.632;2022-10-28T18:03:26;5.97;;;1.40;;
23230;SDS011;11784;49.818;8.632;2022-10-28T18:05:52;4.35;;;1.27;;
23230;SDS011;11784;49.818;8.632;2022-10-28T18:08:18;1.35;;;0.68;;
23230;SDS011;11784;49.818;8.632;2022-10-28T18:10:54;2.33;;;1.02;;
23230;SDS011;11784;49.818;8.632;2022-10-28T18:13:25;5.75;;;1.45;;
23230;SDS011;11784;49.818;8.632;2022-10-28T18:15:52;1.58;;;0.80;;
23230;SDS011;11784;49.818;8.632;2022-10-28T18:18:17;3.80;;;0.85;;
23230;SDS011;11784;49.818;8.632;2022-10-28T18:20:50;3.17;;;1.15;;